Time;durP1;ratioP1;P1;durP2;ratioP2;P2;SDS_P1;SDS_P2;PMS_P1;PMS_P2;Temp;Humidity;BMP_temperature;BMP_pressure;BME280_temperature;BME280_humidity;BME280_pressure;Samples;Min_cycle;Max_cycle;Signal;HPM_P1;HPM_P2
2022/06/18 00:01:37;;;;;;;;;7.20;6.00;;;;;20.95;44.55;100149.44;5095729;28;8852;-63
2022/06/18 00:04:05;;;;;;;;;5.00;5.00;;;;;21.03;44.72;100142.06;5095729;28;8891;-63
2022/06/18 00:06:33;;;;;;;;;6.60;6.40;;;;;21.12;44.76;100137.41;5094475;28;8976;-63
2022/06/18 00:09:01;;;;;;;;;7.60;7.40;;;;;21.19;44.72;100130.25;5093812;28;8837;-63
2022/06/18 00:14:14;;;;;;;;;5.40;5.40;;;;;21.24;44.68;100131.38;5093843;28;8838;-63
2022/06/18 00:16:41;;;;;;;;;8.00;7.20;;;;;21.27;44.75;100125.56;5093278;28;8830;-62
2022/06/18 00:19:10;;;;;;;;;6.20;6.20;;;;;21.29;44.07;100120.81;5093657;28;8838;-62
2022/06/18 00:21:37;;;;;;;;;5.40;4.60;;;;;21.34;44.42;100123.78;5093636;28;9016;-62
2022/06/18 00:24:05;;;;;;;;;6.00;5.20;;;;;21.42;44.64;100117.47;5092989;28;8845;-62
2022/06/18 00:26:37;;;;;;;;;2.00;2.00;;;;;21.52;44.33;100109.88;5094706;28;8877;-62
2022/06/18 00:29:05;;;;;;;;;5.00;5.00;;;;;21.59;43.85;100116.22;5094260;28;8952;-62
2022/06/18 00:31:33;;;;;;;;;6.40;6.20;;;;;21.64;43.81;100108.38;5095467;28;8996;-63
2022/06/18 00:34:01;;;;;;;;;8.00;7.20;;;;;21.67;43.96;100114.31;5094773;28;8841;-63
2022/06/18 00:36:29;;;;;;;;;7.80;6.20;;;;;21.72;43.74;100111.84;5095243;28;8822;-63
2022/06/18 00:38:56;;;;;;;;;6.80;6.80;;;;;21.78;43.92;100115.69;5095081;28;8850;-62
2022/06/18 00:41:25;;;;;;;;;5.60;5.00;;;;;21.84;44.13;100110.34;5094540;28;8915;-63
2022/06/18 00:43:52;;;;;;;;;8.00;6.80;;;;;21.89;43.49;100110.63;5095075;28;8926;-63
2022/06/18 00:46:21;;;;;;;;;4.40;4.20;;;;;21.92;43.70;100106.66;5095195;28;8826;-63
2022/06/18 00:48:49;;;;;;;;;8.20;8.00;;;;;21.91;43.68;100108.56;5095047;28;8837;-63
2022/06/18 00:51:17;;;;;;;;;6.00;5.80;;;;;21.92;43.84;100103.97;5094912;28;8845;-63
2022/06/18 00:53:45;;;;;;;;;5.60;5.20;;;;;21.93;44.04;100109.19;5094760;28;8822;-63
2022/06/18 00:56:32;;;;;;;;;4.80;4.80;;;;;21.93;43.95;100098.34;5094499;28;8862;-63
2022/06/18 00:59:00;;;;;;;;;8.00;8.00;;;;;21.92;43.94;100101.25;5095285;28;8957;-63
2022/06/18 01:01:28;;;;;;;;;6.20;5.00;;;;;21.90;44.15;100095.19;5094508;28;8914;-63
2022/06/18 01:03:56;;;;;;;;;5.80;5.80;;;;;21.90;44.04;100103.31;5094708;28;8856;-63
2022/06/18 01:06:24;;;;;;;;;5.60;5.40;;;;;21.92;44.31;100098.53;5093915;28;8841;-63
2022/06/18 01:08:52;;;;;;;;;8.40;7.20;;;;;21.93;44.18;100102.94;5094145;28;8829;-63
2022/06/18 01:11:20;;;;;;;;;6.40;6.00;;;;;21.91;44.19;100102.28;5093685;28;8842;-63
2022/06/18 01:13:48;;;;;;;;;6.00;6.00;;;;;21.88;44.46;100094.53;5094310;28;8826;-63
2022/06/18 01:16:18;;;;;;;;;5.00;5.00;;;;;21.83;44.20;100091.53;5093207;28;8848;-63
2022/06/18 01:18:46;;;;;;;;;5.20;5.20;;;;;21.77;44.16;100086.88;5092537;28;9235;-62
2022/06/18 01:21:14;;;;;;;;;6.00;5.00;;;;;21.72;43.96;100084.72;5091888;28;8884;-64
2022/06/18 01:23:42;;;;;;;;;5.20;5.20;;;;;21.71;44.68;100090.38;5091873;28;8838;-63
2022/06/18 01:26:10;;;;;;;;;5.20;5.00;;;;;21.69;44.51;100086.97;5091795;28;8850;-63
2022/06/18 01:28:38;;;;;;;;;5.00;5.00;;;;;21.71;44.50;100077.63;5092584;28;9638;-63
2022/06/18 01:31:06;;;;;;;;;5.80;5.60;;;;;21.74;44.83;100081.84;5092493;28;8970;-63
2022/06/18 01:33:34;;;;;;;;;6.20;5.40;;;;;21.77;44.21;100076.88;5097542;28;8854;-63
2022/06/18 01:36:01;;;;;;;;;4.00;4.00;;;;;21.77;44.44;100076.03;5098576;28;8844;-63
2022/06/18 01:38:29;;;;;;;;;5.80;5.80;;;;;21.80;44.44;100070.25;5098389;28;8842;-63
2022/06/18 01:40:57;;;;;;;;;6.00;5.20;;;;;21.82;44.40;100060.03;5098175;28;8854;-63
2022/06/18 01:43:25;;;;;;;;;5.80;5.80;;;;;21.81;44.06;100067.34;5098123;28;8852;-63
2022/06/18 01:45:52;;;;;;;;;4.80;4.60;;;;;21.79;44.64;100052.28;5098443;28;8829;-63
2022/06/18 01:48:20;;;;;;;;;4.00;4.00;;;;;21.79;44.51;100068.56;5097516;28;8964;-63
2022/06/18 01:50:48;;;;;;;;;5.80;5.80;;;;;21.78;44.22;100056.88;5097902;28;8906;-63
2022/06/18 01:53:16;;;;;;;;;5.00;4.00;;;;;21.77;44.59;100057.91;5098606;28;8860;-63
2022/06/18 01:55:44;;;;;;;;;6.00;6.00;;;;;21.77;44.92;100057.03;5098735;28;8992;-63
2022/06/18 01:58:12;;;;;;;;;5.60;5.60;;;;;21.77;44.91;100055.19;5098438;28;8848;-63
2022/06/18 02:00:40;;;;;;;;;5.40;5.40;;;;;21.76;44.58;100041.81;5098428;28;8865;-63
2022/06/18 02:03:08;;;;;;;;;6.00;5.00;;;;;21.77;44.64;100048.91;5098694;28;8854;-63
2022/06/18 02:05:37;;;;;;;;;5.60;5.60;;;;;21.77;44.76;100038.91;5098677;28;8830;-63
2022/06/18 02:08:05;;;;;;;;;4.00;4.00;;;;;21.79;44.70;100042.28;5098535;28;8860;-63
2022/06/18 02:10:33;;;;;;;;;5.00;4.20;;;;;21.80;44.71;100045.84;5098720;28;9507;-63
2022/06/18 02:13:00;;;;;;;;;6.00;6.00;;;;;21.79;44.47;100038.75;5098242;28;8838;-63
2022/06/18 02:15:29;;;;;;;;;8.00;6.80;;;;;21.77;45.01;100038.91;5097593;28;8834;-63
2022/06/18 02:17:57;;;;;;;;;5.80;5.00;;;;;21.76;44.62;100036.38;5097915;28;8844;-63
2022/06/18 02:20:26;;;;;;;;;5.00;5.00;;;;;21.78;44.91;100034.34;5098089;28;8866;-63
2022/06/18 02:22:54;;;;;;;;;5.00;5.00;;;;;21.79;44.99;100025.19;5097533;28;8861;-63
2022/06/18 02:25:22;;;;;;;;;5.80;5.00;;;;;21.82;44.59;100024.78;5098221;28;8873;-63
2022/06/18 02:27:50;;;;;;;;;5.60;5.00;;;;;21.85;44.69;100025.25;5097886;28;8837;-64
2022/06/18 02:30:18;;;;;;;;;4.00;4.00;;;;;21.92;44.72;100023.44;5097883;28;8841;-63
2022/06/18 02:32:46;;;;;;;;;6.40;6.00;;;;;21.97;44.58;100028.28;5097511;28;8854;-64
2022/06/18 02:35:14;;;;;;;;;5.00;4.40;;;;;22.04;45.00;100019.19;5097773;28;8962;-64
2022/06/18 02:37:42;;;;;;;;;6.00;6.00;;;;;22.13;45.01;100022.59;5097639;28;8848;-64
2022/06/18 02:40:09;;;;;;;;;5.20;4.20;;;;;22.20;44.66;100015.38;5097763;28;8837;-63
2022/06/18 02:42:37;;;;;;;;;5.00;5.00;;;;;22.24;44.59;100022.09;5097304;28;8997;-64
2022/06/18 02:45:05;;;;;;;;;6.00;6.00;;;;;22.25;44.78;100015.63;5097912;28;8849;-63
2022/06/18 02:47:33;;;;;;;;;5.00;4.60;;;;;22.26;44.76;100017.31;5097284;28;8983;-64
2022/06/18 02:50:01;;;;;;;;;6.00;6.00;;;;;22.28;44.66;100015.25;5097392;28;8842;-63
2022/06/18 02:52:29;;;;;;;;;4.60;4.00;;;;;22.28;44.92;100007.09;5097128;28;8821;-64
2022/06/18 02:54:57;;;;;;;;;6.80;6.80;;;;;22.30;45.14;100013.19;5097158;28;8900;-64
2022/06/18 02:57:26;;;;;;;;;6.00;6.00;;;;;22.30;44.78;100015.91;5097073;28;8848;-63
2022/06/18 02:59:54;;;;;;;;;7.60;5.80;;;;;22.28;45.30;100020.66;5096727;28;8818;-64
2022/06/18 03:02:22;;;;;;;;;5.20;5.20;;;;;22.30;45.48;100026.75;5097204;28;8834;-64
2022/06/18 03:04:50;;;;;;;;;6.00;6.00;;;;;22.29;45.24;100028.63;5096716;28;8954;-64
2022/06/18 03:07:18;;;;;;;;;2.00;2.00;;;;;22.31;45.81;100025.72;5096734;28;8822;-64
2022/06/18 03:12:31;;;;;;;;;5.00;5.00;;;;;22.33;45.66;100024.47;5096690;28;8864;-63
2022/06/18 03:14:59;;;;;;;;;5.00;5.00;;;;;22.33;45.92;100023.66;5096870;28;8993;-63
2022/06/18 03:17:27;;;;;;;;;4.00;4.00;;;;;22.32;45.82;100022.78;5096973;28;8853;-64
2022/06/18 03:19:56;;;;;;;;;5.80;5.80;;;;;22.33;45.86;100026.38;5096991;28;8846;-63
2022/06/18 03:22:23;;;;;;;;;6.00;6.00;;;;;22.32;45.72;100028.22;5097046;28;8837;-63
2022/06/18 03:24:51;;;;;;;;;5.00;4.80;;;;;22.32;45.61;100027.41;5096861;28;8962;-63
2022/06/18 03:27:19;;;;;;;;;5.80;5.80;;;;;22.32;45.87;100039.06;5097205;28;8859;-63
2022/06/18 03:29:49;;;;;;;;;6.00;6.00;;;;;22.31;46.02;100036.59;5097250;28;8834;-63
2022/06/18 03:32:17;;;;;;;;;5.80;5.80;;;;;22.31;45.82;100036.59;5096826;28;8830;-63
2022/06/18 03:34:45;;;;;;;;;5.00;5.00;;;;;22.29;45.67;100036.75;5096928;28;8853;-63
2022/06/18 03:37:13;;;;;;;;;5.00;4.00;;;;;22.29;46.12;100035.91;5097015;28;8830;-63
2022/06/18 03:39:42;;;;;;;;;5.80;5.80;;;;;22.29;46.06;100046.75;5097313;28;8818;-64
2022/06/18 03:42:09;;;;;;;;;5.60;5.60;;;;;22.30;45.63;100045.75;5096782;28;9000;-64
2022/06/18 03:44:37;;;;;;;;;6.00;6.00;;;;;22.31;45.93;100042.00;5094530;28;8885;-64
2022/06/18 03:47:05;;;;;;;;;6.00;5.60;;;;;22.32;45.95;100041.78;5094313;28;8992;-62
2022/06/18 03:49:33;;;;;;;;;4.80;4.80;;;;;22.32;45.72;100044.50;5094187;28;8842;-63
2022/06/18 03:52:01;;;;;;;;;6.00;6.00;;;;;22.32;45.92;100043.69;5094184;28;8829;-65
2022/06/18 03:54:29;;;;;;;;;5.80;5.00;;;;;22.31;45.75;100037.41;5096157;28;8837;-63
2022/06/18 03:56:57;;;;;;;;;6.00;6.00;;;;;22.33;45.75;100042.66;5096572;28;8910;-64
2022/06/18 03:59:25;;;;;;;;;4.80;4.80;;;;;22.36;45.75;100043.09;5096838;28;8988;-62
2022/06/18 04:01:53;;;;;;;;;6.00;5.40;;;;;22.38;45.90;100042.91;5096074;28;9530;-62
2022/06/18 04:04:21;;;;;;;;;6.00;6.00;;;;;22.39;46.10;100042.69;5096026;28;8837;-64
2022/06/18 04:06:49;;;;;;;;;8.20;8.00;;;;;22.40;45.74;100035.41;5096492;28;9592;-63
2022/06/18 04:09:17;;;;;;;;;5.00;4.80;;;;;22.42;46.13;100038.78;5096683;28;8818;-62
2022/06/18 04:11:44;;;;;;;;;4.60;4.60;;;;;22.44;45.68;100032.13;5095980;28;8858;-64
2022/06/18 04:14:12;;;;;;;;;4.00;4.00;;;;;22.47;45.86;100037.16;5096176;28;9464;-63
2022/06/18 04:16:40;;;;;;;;;6.00;6.00;;;;;22.54;46.13;100037.25;5094932;28;8829;-63
2022/06/18 04:19:10;;;;;;;;;9.00;9.00;;;;;22.59;45.61;100029.31;5093856;28;8902;-63
2022/06/18 04:21:37;;;;;;;;;5.40;5.00;;;;;22.66;46.10;100035.66;5094740;28;8852;-63
2022/06/18 04:24:05;;;;;;;;;7.40;6.40;;;;;22.71;45.97;100031.34;5094536;28;9036;-64
2022/06/18 04:26:33;;;;;;;;;8.60;6.00;;;;;22.76;46.12;100036.16;5094958;28;8824;-63
2022/06/18 04:29:01;;;;;;;;;3.20;2.00;;;;;22.79;46.30;100038.47;5095307;28;8931;-63
2022/06/18 04:31:29;;;;;;;;;8.00;7.20;;;;;22.83;46.10;100037.06;5095526;28;8830;-63
2022/06/18 04:33:56;;;;;;;;;6.00;5.00;;;;;22.86;46.39;100037.50;5096148;28;8833;-63
2022/06/18 04:36:24;;;;;;;;;5.00;5.00;;;;;22.91;45.99;100047.78;5095193;28;8841;-63
2022/06/18 04:38:52;;;;;;;;;5.00;5.00;;;;;22.94;46.22;100042.78;5095447;28;8834;-62
2022/06/18 04:41:20;;;;;;;;;9.00;8.20;;;;;22.98;45.74;100041.34;5095382;28;8996;-63
2022/06/18 04:43:48;;;;;;;;;5.00;5.00;;;;;23.03;46.31;100046.16;5095590;28;8898;-63
2022/06/18 04:46:16;;;;;;;;;5.00;5.00;;;;;23.07;45.81;100039.31;5095141;28;8859;-63
2022/06/18 04:48:44;;;;;;;;;5.00;5.00;;;;;23.10;45.88;100039.75;5094955;28;8834;-63
2022/06/18 04:51:12;;;;;;;;;6.00;6.00;;;;;23.14;45.99;100040.19;5095207;28;8825;-63
2022/06/18 04:53:40;;;;;;;;;6.20;6.00;;;;;23.17;45.54;100035.22;5095285;28;8842;-63
2022/06/18 04:56:07;;;;;;;;;4.80;4.80;;;;;23.22;45.91;100031.91;5095607;28;8830;-63
2022/06/18 04:58:36;;;;;;;;;6.80;6.80;;;;;23.26;45.53;100038.59;5094864;28;8960;-63
2022/06/18 05:01:03;;;;;;;;;6.00;6.00;;;;;23.31;45.90;100041.56;5094888;28;8862;-63
2022/06/18 05:03:31;;;;;;;;;6.00;6.00;;;;;23.35;45.60;100032.81;5095144;28;8826;-63
2022/06/18 05:05:59;;;;;;;;;8.00;6.60;;;;;23.40;45.43;100034.91;5095049;28;9523;-63
2022/06/18 05:08:27;;;;;;;;;7.00;7.00;;;;;23.46;45.26;100036.84;5093356;28;8829;-63
2022/06/18 05:10:55;;;;;;;;;5.40;5.40;;;;;23.54;45.31;100039.38;5091898;28;9606;-63
2022/06/18 05:13:23;;;;;;;;;6.00;6.00;;;;;23.59;45.49;100031.47;5092038;28;8949;-63
2022/06/18 05:15:51;;;;;;;;;6.60;6.60;;;;;23.65;44.84;100034.19;5092133;28;9282;-64
2022/06/18 05:18:19;;;;;;;;;6.80;6.20;;;;;23.68;45.38;100039.22;5093596;28;8865;-63
2022/06/18 05:20:46;;;;;;;;;9.40;9.00;;;;;23.75;45.13;100036.56;5092500;28;8822;-63
2022/06/18 05:23:14;;;;;;;;;5.00;5.00;;;;;23.81;45.31;100033.03;5092449;28;8980;-63
2022/06/18 05:25:42;;;;;;;;;5.80;5.80;;;;;23.86;44.77;100028.66;5094111;28;8840;-63
2022/06/18 05:28:10;;;;;;;;;6.00;6.00;;;;;23.91;44.53;100023.44;5094836;28;8849;-63
2022/06/18 05:30:37;;;;;;;;;6.80;5.80;;;;;23.98;45.28;100021.56;5095086;28;8849;-63
2022/06/18 05:33:05;;;;;;;;;6.40;6.40;;;;;24.03;44.69;100021.78;5094958;28;8830;-63
2022/06/18 05:35:33;;;;;;;;;6.00;6.00;;;;;24.09;44.74;100020.97;5094458;28;8826;-63
2022/06/18 05:38:01;;;;;;;;;5.60;5.60;;;;;24.15;44.59;100027.47;5094913;28;8826;-63
2022/06/18 05:40:29;;;;;;;;;6.40;6.40;;;;;24.20;44.21;100017.63;5094724;28;8908;-64
2022/06/18 05:42:57;;;;;;;;;6.20;6.00;;;;;24.27;44.25;100023.09;5093476;28;8874;-63
2022/06/18 05:45:24;;;;;;;;;6.00;6.00;;;;;24.33;44.25;100024.97;5092856;28;8999;-63
2022/06/18 05:47:52;;;;;;;;;9.00;7.00;;;;;24.42;43.92;100018.31;5093227;28;8841;-63
2022/06/18 05:50:20;;;;;;;;;5.40;5.00;;;;;24.48;44.49;100015.56;5092669;28;8849;-63
2022/06/18 05:52:48;;;;;;;;;6.40;5.60;;;;;24.55;44.30;100019.16;5090855;28;8838;-64
2022/06/18 05:55:22;;;;;;;;;6.80;6.80;;;;;24.64;44.09;100014.34;5092603;28;8850;-63
2022/06/18 05:57:50;;;;;;;;;5.00;5.00;;;;;24.72;43.74;100011.41;5092530;28;9511;-63
2022/06/18 06:00:18;;;;;;;;;2.20;2.20;;;;;24.78;43.82;100011.41;5092289;28;8842;-64
2022/06/18 06:02:46;;;;;;;;;4.20;4.20;;;;;24.85;44.39;100005.94;5091986;28;8869;-63
2022/06/18 06:05:14;;;;;;;;;7.00;7.00;;;;;24.92;43.85;100007.63;5092216;28;8837;-64
2022/06/18 06:07:44;;;;;;;;;6.00;6.00;;;;;24.98;44.38;100001.31;5092464;28;8829;-63
2022/06/18 06:12:57;;;;;;;;;6.60;6.00;;;;;25.12;44.16;100013.03;5091055;28;8950;-63
2022/06/18 06:15:25;;;;;;;;;9.40;8.80;;;;;25.19;43.62;100013.84;5091660;28;8846;-64
2022/06/18 06:17:52;;;;;;;;;8.20;7.00;;;;;25.26;43.76;100010.06;5092657;28;8833;-63
2022/06/18 06:20:20;;;;;;;;;9.20;9.20;;;;;25.35;43.54;100007.97;5096198;28;8968;-63
2022/06/18 06:22:48;;;;;;;;;7.00;7.00;;;;;25.42;43.24;100006.91;5095925;28;8877;-64
2022/06/18 06:25:16;;;;;;;;;7.00;7.00;;;;;25.50;43.56;100005.81;5097054;28;8834;-63
2022/06/18 06:27:44;;;;;;;;;7.40;6.40;;;;;25.58;43.59;100009.13;5097705;28;8850;-64
2022/06/18 06:30:11;;;;;;;;;7.60;7.60;;;;;25.65;43.00;100016.22;5097238;28;8840;-63
2022/06/18 06:32:39;;;;;;;;;7.40;7.00;;;;;25.73;43.41;100009.69;5096132;28;8859;-63
2022/06/18 06:35:07;;;;;;;;;7.00;7.00;;;;;25.77;43.17;100014.50;5095822;28;8977;-63
2022/06/18 06:37:35;;;;;;;;;7.40;7.00;;;;;25.86;43.17;100015.06;5095911;28;8876;-63
2022/06/18 06:40:03;;;;;;;;;6.00;6.00;;;;;25.93;43.43;100013.16;5095749;28;9554;-63
2022/06/18 06:42:31;;;;;;;;;8.20;8.20;;;;;26.02;43.14;100007.25;5093634;28;9047;-64
2022/06/18 06:44:59;;;;;;;;;11.00;8.80;;;;;26.10;42.72;100009.72;5094346;28;8911;-64
2022/06/18 06:47:26;;;;;;;;;7.40;7.40;;;;;26.17;42.83;100013.22;5095426;28;8826;-64
2022/06/18 06:49:55;;;;;;;;;7.80;7.80;;;;;26.27;42.95;100012.75;5096437;28;8842;-63
2022/06/18 06:52:22;;;;;;;;;7.00;7.00;;;;;26.35;42.88;100010.56;5096459;28;8813;-63
2022/06/18 06:57:21;;;;;;;;;6.80;6.40;;;;;26.43;42.49;100020.41;5096347;28;8972;-64
2022/06/18 06:57:37;;;;;;;;;9.20;9.20;;;;;26.52;42.60;100017.22;5095164;28;8856;-63
2022/06/18 07:00:05;;;;;;;;;6.60;6.60;;;;;26.59;42.49;100009.81;5094757;28;8838;-64
2022/06/18 07:02:33;;;;;;;;;8.60;8.20;;;;;26.69;42.33;100012.88;5094140;28;8822;-63
2022/06/18 07:05:00;;;;;;;;;6.60;6.60;;;;;26.77;42.40;100017.19;5095633;28;8849;-63
2022/06/18 07:07:29;;;;;;;;;7.60;7.00;;;;;26.83;42.10;100016.31;5094963;28;8846;-63
2022/06/18 07:09:58;;;;;;;;;7.40;7.20;;;;;26.90;41.52;100019.81;5095248;28;8902;-64
2022/06/18 07:12:26;;;;;;;;;7.20;6.80;;;;;26.94;42.19;100016.41;5095792;28;8892;-63
2022/06/18 07:14:54;;;;;;;;;5.20;4.40;;;;;27.01;41.76;100019.91;5094766;28;8848;-64
2022/06/18 07:17:22;;;;;;;;;7.40;7.40;;;;;27.05;41.61;100015.69;5094938;28;8914;-64
2022/06/18 07:19:50;;;;;;;;;6.80;6.80;;;;;27.11;41.76;100014.78;5094308;28;8848;-63
2022/06/18 07:22:18;;;;;;;;;7.80;7.80;;;;;27.20;42.14;100013.44;5093965;28;8960;-64
2022/06/18 07:24:46;;;;;;;;;7.40;7.00;;;;;27.25;41.87;100010.84;5094534;28;8851;-63
2022/06/18 07:27:14;;;;;;;;;10.00;9.00;;;;;27.36;42.05;100009.25;5094530;28;8830;-64
2022/06/18 07:29:42;;;;;;;;;9.00;7.80;;;;;27.45;41.06;100006.00;5093428;28;8833;-64
2022/06/18 07:32:10;;;;;;;;;9.80;8.80;;;;;27.52;41.78;100003.16;5094503;28;9515;-64
2022/06/18 07:34:38;;;;;;;;;7.80;7.60;;;;;27.57;41.99;100000.56;5094294;28;8832;-63
2022/06/18 07:37:05;;;;;;;;;8.00;8.00;;;;;27.60;41.26;100000.97;5094183;28;8881;-63
2022/06/18 07:39:33;;;;;;;;;7.20;7.20;;;;;27.67;40.99;99988.03;5094344;28;8863;-64
2022/06/18 07:42:01;;;;;;;;;8.80;8.60;;;;;27.70;41.37;99995.75;5094614;28;8862;-64
2022/06/18 07:44:29;;;;;;;;;8.80;8.80;;;;;27.72;41.26;99990.91;5095743;28;8858;-64
2022/06/18 07:46:58;;;;;;;;;8.60;8.40;;;;;27.82;41.06;99984.91;5095048;28;8834;-63
2022/06/18 07:49:26;;;;;;;;;9.00;9.00;;;;;27.89;41.13;99981.00;5095179;28;8946;-63
2022/06/18 07:51:54;;;;;;;;;11.80;9.60;;;;;27.98;40.99;99976.06;5094390;28;8964;-64
2022/06/18 07:54:22;;;;;;;;;9.00;8.80;;;;;28.04;41.08;99978.69;5093312;28;9507;-63
2022/06/18 07:56:50;;;;;;;;;10.00;9.00;;;;;28.08;41.10;99974.41;5093378;28;8826;-64
2022/06/18 07:59:18;;;;;;;;;8.20;7.80;;;;;28.14;40.58;99978.94;5095026;28;8868;-64
2022/06/18 08:01:45;;;;;;;;;10.00;8.80;;;;;28.19;40.39;99972.75;5095227;28;8834;-64
2022/06/18 08:04:13;;;;;;;;;10.20;10.00;;;;;28.25;40.80;99975.41;5094701;28;8868;-64
2022/06/18 08:06:41;;;;;;;;;8.20;8.00;;;;;28.32;40.18;99976.16;5092959;28;8822;-63
2022/06/18 08:09:09;;;;;;;;;10.00;9.20;;;;;28.38;40.44;99956.03;5094287;28;8841;-64
2022/06/18 08:11:37;;;;;;;;;9.80;8.80;;;;;28.46;40.33;99955.69;5094542;28;9048;-63
2022/06/18 08:14:05;;;;;;;;;6.40;5.00;;;;;28.55;40.71;99957.03;5094179;28;8838;-64
2022/06/18 08:16:33;;;;;;;;;9.20;9.20;;;;;28.65;40.19;99953.66;5093930;28;8842;-64
2022/06/18 08:19:01;;;;;;;;;10.00;10.00;;;;;28.75;40.27;99954.75;5095233;28;8872;-65
2022/06/18 08:21:29;;;;;;;;;8.20;8.20;;;;;28.85;40.36;99949.50;5078835;28;8846;-64
2022/06/18 08:23:57;;;;;;;;;9.60;8.80;;;;;28.97;39.83;99946.78;5075837;28;8850;-63
2022/06/18 08:26:25;;;;;;;;;11.00;10.00;;;;;29.09;39.80;99939.38;5073954;28;8958;-63
2022/06/18 08:28:52;;;;;;;;;8.80;8.00;;;;;29.21;39.70;99941.00;5074402;28;8887;-64
2022/06/18 08:31:26;;;;;;;;;10.00;10.00;;;;;29.33;39.33;99936.34;5074014;28;9158;-64
2022/06/18 08:33:54;;;;;;;;;10.40;10.00;;;;;29.50;39.41;99939.16;5074336;28;9510;-64
2022/06/18 08:36:22;;;;;;;;;8.80;7.80;;;;;29.63;39.31;99931.50;5074709;28;8844;-64
2022/06/18 08:38:51;;;;;;;;;8.80;8.20;;;;;29.75;39.01;99939.69;5073978;28;8840;-63
2022/06/18 08:41:18;;;;;;;;;6.40;6.40;;;;;29.83;39.18;99936.53;5074112;28;8948;-64
2022/06/18 08:43:46;;;;;;;;;11.00;10.60;;;;;29.89;38.56;99935.56;5073465;28;8974;-64
2022/06/18 08:46:15;;;;;;;;;7.20;6.80;;;;;29.92;39.08;99933.16;5073496;28;8878;-64
2022/06/18 08:48:43;;;;;;;;;9.00;9.00;;;;;30.02;38.57;99936.06;5073767;28;9521;-63
2022/06/18 08:51:11;;;;;;;;;7.80;7.80;;;;;30.17;39.02;99933.63;5073512;28;8851;-64
2022/06/18 08:53:38;;;;;;;;;7.00;7.00;;;;;30.33;38.48;99920.97;5073367;28;8872;-64
2022/06/18 08:56:07;;;;;;;;;7.80;7.80;;;;;30.45;38.53;99919.81;5073376;28;8998;-64
2022/06/18 08:58:35;;;;;;;;;10.80;10.60;;;;;30.57;38.12;99922.47;5074171;28;9510;-64
2022/06/18 09:01:02;;;;;;;;;7.80;7.60;;;;;30.67;38.22;99927.06;5074349;28;9512;-64
2022/06/18 09:03:30;;;;;;;;;9.40;8.20;;;;;30.79;37.98;99921.44;5074075;28;8966;-64
2022/06/18 09:05:58;;;;;;;;;6.00;6.00;;;;;30.86;38.14;99924.84;5074553;28;9013;-65
2022/06/18 09:08:26;;;;;;;;;7.20;7.20;;;;;30.91;37.64;99919.44;5072198;28;8865;-64
2022/06/18 09:10:54;;;;;;;;;8.40;8.20;;;;;31.04;37.56;99919.88;5071240;28;9609;-64
2022/06/18 09:13:22;;;;;;;;;8.00;7.80;;;;;31.13;37.96;99928.56;5071550;28;8855;-64
2022/06/18 09:15:49;;;;;;;;;5.00;5.00;;;;;31.21;37.65;99920.72;5072240;28;8848;-64
2022/06/18 09:18:18;;;;;;;;;10.00;9.00;;;;;31.27;37.33;99913.34;5072566;28;8966;-64
2022/06/18 09:20:46;;;;;;;;;10.20;8.80;;;;;31.32;36.93;99913.41;5072902;28;8994;-65
2022/06/18 09:23:14;;;;;;;;;7.20;7.20;;;;;31.41;36.95;99920.97;5073027;28;8828;-64
2022/06/18 09:25:42;;;;;;;;;7.00;6.00;;;;;31.54;36.87;99911.47;5074917;28;8839;-65
2022/06/18 09:28:10;;;;;;;;;9.60;8.80;;;;;31.62;36.99;99911.00;5077621;28;8887;-64
2022/06/18 09:30:37;;;;;;;;;7.60;7.60;;;;;31.68;37.04;99909.97;5114758;28;8962;-64
2022/06/18 09:33:06;;;;;;;;;9.00;8.00;;;;;31.70;37.00;99907.81;5115408;28;8846;-64
2022/06/18 09:35:33;;;;;;;;;10.00;9.40;;;;;31.79;36.81;99911.78;5115052;28;8836;-64
2022/06/18 09:38:01;;;;;;;;;8.60;8.00;;;;;31.90;36.28;99908.03;5114739;28;8858;-64
2022/06/18 09:40:29;;;;;;;;;8.20;8.20;;;;;32.00;36.62;99919.16;5093258;28;8915;-64
2022/06/18 09:42:57;;;;;;;;;7.80;7.80;;;;;32.15;35.95;99917.38;5093634;28;9532;-65
2022/06/18 09:45:25;;;;;;;;;7.60;7.20;;;;;32.30;35.58;99905.66;5093503;28;8849;-63
2022/06/18 09:47:53;;;;;;;;;7.00;7.00;;;;;32.47;35.73;99911.88;5093050;28;8830;-65
2022/06/18 09:50:20;;;;;;;;;8.60;8.00;;;;;32.57;35.82;99895.41;5112847;28;8843;-64
2022/06/18 09:52:48;;;;;;;;;9.40;8.80;;;;;32.59;35.53;99901.47;5113382;28;8839;-63
2022/06/18 09:55:16;;;;;;;;;10.00;10.00;;;;;32.64;35.66;99910.66;5117585;28;8819;-63
2022/06/18 09:57:44;;;;;;;;;8.20;7.80;;;;;32.78;35.57;99911.03;5116474;28;8863;-64
2022/06/18 10:00:13;;;;;;;;;8.40;8.00;;;;;32.89;35.04;99913.59;5098863;28;8826;-64
2022/06/18 10:02:41;;;;;;;;;8.00;7.40;;;;;33.16;34.41;99918.97;5096518;28;8842;-64
2022/06/18 10:07:55;;;;;;;;;9.20;9.20;;;;;33.69;34.54;99913.13;5096421;28;8834;-63
2022/06/18 10:10:25;;;;;;;;;9.00;8.00;;;;;33.98;33.78;99911.56;5115276;28;8954;-63
2022/06/18 10:12:54;;;;;;;;;7.80;6.80;;;;;34.22;33.63;99913.53;5116673;28;8895;-63
2022/06/18 10:15:22;;;;;;;;;6.20;6.20;;;;;34.51;33.33;99911.88;5118319;28;8820;-63
2022/06/18 10:17:54;;;;;;;;;9.00;7.40;;;;;34.79;32.71;99905.78;5118794;28;8970;-63
2022/06/18 10:20:21;;;;;;;;;8.00;8.00;;;;;35.06;32.29;99908.19;5115893;28;8839;-63
2022/06/18 10:22:49;;;;;;;;;8.40;8.00;;;;;35.24;32.03;99904.81;5097618;28;8837;-63
2022/06/18 10:25:18;;;;;;;;;8.00;7.60;;;;;35.39;31.95;99907.53;5097140;28;8840;-65
2022/06/18 10:27:46;;;;;;;;;8.80;8.20;;;;;35.56;31.90;99902.47;5095864;28;8964;-63
2022/06/18 10:30:13;;;;;;;;;8.60;7.60;;;;;35.77;31.52;99899.34;5097844;28;8972;-64
2022/06/18 10:32:41;;;;;;;;;8.00;8.00;;;;;35.94;31.39;99894.22;5097583;28;8976;-64
2022/06/18 10:35:09;;;;;;;;;7.00;6.80;;;;;36.13;31.12;99898.78;5105910;28;8994;-64
2022/06/18 10:37:37;;;;;;;;;9.00;8.00;;;;;36.29;31.38;99905.94;5118330;28;8832;-64
2022/06/18 10:40:22;;;;;;;;;7.20;6.80;;;;;36.39;30.68;99903.06;5117648;28;8831;-64
2022/06/18 10:42:50;;;;;;;;;8.40;8.40;;;;;36.55;31.29;99895.41;5117525;28;8878;-63
2022/06/18 10:45:18;;;;;;;;;7.40;7.40;;;;;36.66;31.41;99908.91;5117910;28;8986;-64
2022/06/18 10:47:47;;;;;;;;;7.60;7.60;;;;;36.77;30.54;99904.94;5117327;28;9505;-63
2022/06/18 10:50:15;;;;;;;;;7.60;7.00;;;;;36.91;30.23;99899.50;5112540;28;8868;-64
2022/06/18 10:52:43;;;;;;;;;8.20;7.80;;;;;37.07;30.52;99898.22;5097942;28;8956;-64
2022/06/18 10:55:11;;;;;;;;;9.00;8.00;;;;;37.09;30.10;99896.00;5097402;28;8846;-64
2022/06/18 10:57:45;;;;;;;;;8.20;7.20;;;;;37.20;30.72;99895.59;5096592;28;8884;-63
2022/06/18 11:00:14;;;;;;;;;5.00;4.20;;;;;37.28;30.54;99900.50;5096392;28;8922;-64
2022/06/18 11:02:43;;;;;;;;;7.00;7.00;;;;;37.36;30.08;99891.50;5096699;28;8826;-64
2022/06/18 11:05:11;;;;;;;;;7.00;7.00;;;;;37.40;30.40;99886.97;5095487;28;8846;-65
2022/06/18 11:07:39;;;;;;;;;9.00;7.80;;;;;37.42;29.88;99895.88;5100033;28;8816;-63
2022/06/18 11:10:07;;;;;;;;;7.00;7.00;;;;;37.43;29.78;99891.97;5116750;28;8962;-63
2022/06/18 11:12:34;;;;;;;;;8.80;8.40;;;;;37.62;29.83;99892.00;5115911;28;8966;-64
2022/06/18 11:15:02;;;;;;;;;9.00;9.00;;;;;37.79;29.75;99886.75;5116295;28;8819;-64
2022/06/18 11:17:30;;;;;;;;;11.00;9.00;;;;;38.01;29.70;99879.47;5117152;28;8870;-65
2022/06/18 11:19:58;;;;;;;;;9.00;8.00;;;;;38.32;29.24;99877.84;5117445;28;8917;-64
2022/06/18 11:22:26;;;;;;;;;6.60;6.60;;;;;38.55;29.22;99876.91;5117528;28;8828;-64
2022/06/18 11:24:54;;;;;;;;;9.20;8.40;;;;;38.78;28.52;99875.06;5116976;28;8859;-64
2022/06/18 11:27:22;;;;;;;;;7.80;7.20;;;;;39.02;28.80;99871.00;5113927;28;9563;-64
2022/06/18 11:29:50;;;;;;;;;7.80;7.20;;;;;39.04;28.53;99879.06;5096394;28;8825;-65
2022/06/18 11:32:18;;;;;;;;;5.40;5.20;;;;;39.05;28.47;99870.38;5096351;28;8856;-64
2022/06/18 11:34:48;;;;;;;;;8.80;8.80;;;;;39.13;28.17;99866.06;5095499;28;8826;-64
2022/06/18 11:37:15;;;;;;;;;7.80;7.80;;;;;39.11;28.59;99863.56;5096200;28;8833;-64
2022/06/18 11:39:43;;;;;;;;;5.60;5.60;;;;;39.27;28.01;99870.50;5096324;28;8851;-64
2022/06/18 11:42:11;;;;;;;;;6.60;6.60;;;;;39.53;28.02;99863.25;5095528;28;8850;-66
2022/06/18 11:44:39;;;;;;;;;6.20;6.20;;;;;39.91;27.93;99855.41;5095998;28;8850;-65
2022/06/18 11:47:07;;;;;;;;;0.80;0.40;;;;;39.94;27.74;99852.81;5115382;28;9607;-64
2022/06/18 11:49:35;;;;;;;;;6.80;6.80;;;;;39.78;27.49;99857.09;5115416;28;8831;-64
2022/06/18 11:52:03;;;;;;;;;2.80;2.60;;;;;39.75;27.96;99857.75;5115076;28;8835;-65